sensor_id;sensor_type;location;lat;lon;timestamp;P1;durP1;ratioP1;P2;durP2;ratioP2
21274;SDS011;36472;52.170;20.884;2024-01-30T00:00:59;47.03;;;25.30;;
21274;SDS011;36472;52.170;20.884;2024-01-30T00:03:45;46.25;;;24.65;;
21274;SDS011;36472;52.170;20.884;2024-01-30T00:06:17;42.17;;;24.60;;
21274;SDS011;36472;52.170;20.884;2024-01-30T00:08:48;43.97;;;24.88;;
21274;SDS011;36472;52.170;20.884;2024-01-30T00:11:17;41.42;;;24.52;;
21274;SDS011;36472;52.170;20.884;2024-01-30T00:13:47;42.47;;;25.67;;
21274;SDS011;36472;52.170;20.884;2024-01-30T00:16:19;36.88;;;22.60;;
21274;SDS011;36472;52.170;20.884;2024-01-30T00:18:51;44.45;;;23.98;;
21274;SDS011;36472;52.170;20.884;2024-01-30T00:21:20;42.20;;;24.35;;
21274;SDS011;36472;52.170;20.884;2024-01-30T00:23:50;42.08;;;23.70;;
21274;SDS011;36472;52.170;20.884;2024-01-30T00:26:19;41.17;;;24.35;;
21274;SDS011;36472;52.170;20.884;2024-01-30T00:28:49;42.88;;;24.10;;
21274;SDS011;36472;52.170;20.884;2024-01-30T00:31:18;41.90;;;24.30;;
21274;SDS011;36472;52.170;20.884;2024-01-30T00:33:48;40.95;;;24.50;;
21274;SDS011;36472;52.170;20.884;2024-01-30T00:36:16;40.50;;;24.85;;
21274;SDS011;36472;52.170;20.884;2024-01-30T00:38:46;38.35;;;23.58;;
21274;SDS011;36472;52.170;20.884;2024-01-30T00:41:15;38.45;;;23.48;;
21274;SDS011;36472;52.170;20.884;2024-01-30T00:43:46;42.45;;;25.10;;
21274;SDS011;36472;52.170;20.884;2024-01-30T00:46:16;38.08;;;23.08;;
21274;SDS011;36472;52.170;20.884;2024-01-30T00:48:46;38.72;;;23.48;;
21274;SDS011;36472;52.170;20.884;2024-01-30T00:51:14;37.28;;;23.33;;
21274;SDS011;36472;52.170;20.884;2024-01-30T00:53:44;40.95;;;23.73;;
21274;SDS011;36472;52.170;20.884;2024-01-30T00:56:13;38.78;;;22.52;;
21274;SDS011;36472;52.170;20.884;2024-01-30T00:58:45;41.20;;;23.83;;
21274;SDS011;36472;52.170;20.884;2024-01-30T01:01:14;37.78;;;24.63;;
21274;SDS011;36472;52.170;20.884;2024-01-30T01:03:45;40.60;;;23.23;;
21274;SDS011;36472;52.170;20.884;2024-01-30T01:06:15;38.28;;;23.35;;
21274;SDS011;36472;52.170;20.884;2024-01-30T01:08:44;43.45;;;24.27;;
21274;SDS011;36472;52.170;20.884;2024-01-30T01:11:13;39.00;;;23.27;;
21274;SDS011;36472;52.170;20.884;2024-01-30T01:13:42;38.10;;;23.08;;
21274;SDS011;36472;52.170;20.884;2024-01-30T01:16:11;40.05;;;24.52;;
21274;SDS011;36472;52.170;20.884;2024-01-30T01:18:42;41.50;;;23.15;;
21274;SDS011;36472;52.170;20.884;2024-01-30T01:21:11;39.97;;;23.30;;
21274;SDS011;36472;52.170;20.884;2024-01-30T01:23:40;39.63;;;23.00;;
21274;SDS011;36472;52.170;20.884;2024-01-30T01:26:09;39.72;;;23.85;;
21274;SDS011;36472;52.170;20.884;2024-01-30T01:28:39;37.83;;;22.45;;
21274;SDS011;36472;52.170;20.884;2024-01-30T01:31:08;41.33;;;23.88;;
21274;SDS011;36472;52.170;20.884;2024-01-30T01:33:38;35.28;;;22.25;;
21274;SDS011;36472;52.170;20.884;2024-01-30T01:36:08;40.10;;;22.80;;
21274;SDS011;36472;52.170;20.884;2024-01-30T01:38:37;35.97;;;21.85;;
21274;SDS011;36472;52.170;20.884;2024-01-30T01:41:06;39.50;;;23.30;;
21274;SDS011;36472;52.170;20.884;2024-01-30T01:43:35;34.65;;;22.42;;
21274;SDS011;36472;52.170;20.884;2024-01-30T01:46:05;39.83;;;23.52;;
21274;SDS011;36472;52.170;20.884;2024-01-30T01:48:35;37.20;;;22.50;;
21274;SDS011;36472;52.170;20.884;2024-01-30T01:51:08;42.17;;;23.92;;
21274;SDS011;36472;52.170;20.884;2024-01-30T01:53:38;40.90;;;21.98;;
21274;SDS011;36472;52.170;20.884;2024-01-30T01:56:07;37.30;;;22.38;;
21274;SDS011;36472;52.170;20.884;2024-01-30T01:58:37;37.85;;;22.40;;
21274;SDS011;36472;52.170;20.884;2024-01-30T02:01:06;39.60;;;23.83;;
21274;SDS011;36472;52.170;20.884;2024-01-30T02:03:36;41.58;;;23.73;;
21274;SDS011;36472;52.170;20.884;2024-01-30T02:06:06;42.00;;;23.92;;
21274;SDS011;36472;52.170;20.884;2024-01-30T02:08:37;38.25;;;22.13;;
21274;SDS011;36472;52.170;20.884;2024-01-30T02:11:06;40.88;;;23.50;;
21274;SDS011;36472;52.170;20.884;2024-01-30T02:13:36;40.45;;;23.50;;
21274;SDS011;36472;52.170;20.884;2024-01-30T02:16:05;36.97;;;22.05;;
21274;SDS011;36472;52.170;20.884;2024-01-30T02:18:34;45.33;;;24.42;;
21274;SDS011;36472;52.170;20.884;2024-01-30T02:21:18;38.65;;;23.13;;
21274;SDS011;36472;52.170;20.884;2024-01-30T02:23:48;38.70;;;23.35;;
21274;SDS011;36472;52.170;20.884;2024-01-30T02:26:18;43.22;;;23.67;;
21274;SDS011;36472;52.170;20.884;2024-01-30T02:28:47;41.75;;;23.27;;
21274;SDS011;36472;52.170;20.884;2024-01-30T02:31:16;36.58;;;21.80;;
21274;SDS011;36472;52.170;20.884;2024-01-30T02:33:46;40.70;;;23.42;;
21274;SDS011;36472;52.170;20.884;2024-01-30T02:36:14;38.47;;;22.58;;
21274;SDS011;36472;52.170;20.884;2024-01-30T02:38:45;39.05;;;21.98;;
21274;SDS011;36472;52.170;20.884;2024-01-30T02:41:14;37.45;;;22.27;;
21274;SDS011;36472;52.170;20.884;2024-01-30T02:43:43;34.83;;;21.52;;
21274;SDS011;36472;52.170;20.884;2024-01-30T02:46:11;39.80;;;23.23;;
21274;SDS011;36472;52.170;20.884;2024-01-30T02:48:41;41.88;;;21.90;;
21274;SDS011;36472;52.170;20.884;2024-01-30T02:51:10;39.45;;;23.02;;
21274;SDS011;36472;52.170;20.884;2024-01-30T02:53:39;43.20;;;24.20;;
21274;SDS011;36472;52.170;20.884;2024-01-30T02:56:09;39.60;;;22.90;;
21274;SDS011;36472;52.170;20.884;2024-01-30T02:58:39;41.42;;;23.67;;
21274;SDS011;36472;52.170;20.884;2024-01-30T03:01:08;39.42;;;23.27;;
21274;SDS011;36472;52.170;20.884;2024-01-30T03:03:38;38.75;;;22.08;;
21274;SDS011;36472;52.170;20.884;2024-01-30T03:06:08;39.92;;;23.13;;
21274;SDS011;36472;52.170;20.884;2024-01-30T03:08:37;39.28;;;23.35;;
21274;SDS011;36472;52.170;20.884;2024-01-30T03:11:07;36.67;;;21.67;;
21274;SDS011;36472;52.170;20.884;2024-01-30T03:13:37;39.80;;;22.30;;
21274;SDS011;36472;52.170;20.884;2024-01-30T03:16:08;35.95;;;21.23;;
21274;SDS011;36472;52.170;20.884;2024-01-30T03:18:37;37.83;;;21.60;;
21274;SDS011;36472;52.170;20.884;2024-01-30T03:21:06;35.10;;;22.15;;
21274;SDS011;36472;52.170;20.884;2024-01-30T03:23:35;35.78;;;22.08;;
21274;SDS011;36472;52.170;20.884;2024-01-30T03:26:04;41.88;;;22.98;;
21274;SDS011;36472;52.170;20.884;2024-01-30T03:28:33;35.03;;;21.58;;
21274;SDS011;36472;52.170;20.884;2024-01-30T03:31:04;36.85;;;22.50;;
21274;SDS011;36472;52.170;20.884;2024-01-30T03:33:33;39.70;;;22.77;;
21274;SDS011;36472;52.170;20.884;2024-01-30T03:36:02;39.58;;;23.73;;
21274;SDS011;36472;52.170;20.884;2024-01-30T03:38:33;35.78;;;21.30;;
21274;SDS011;36472;52.170;20.884;2024-01-30T03:41:02;37.70;;;22.23;;
21274;SDS011;36472;52.170;20.884;2024-01-30T03:43:31;40.35;;;21.60;;
21274;SDS011;36472;52.170;20.884;2024-01-30T03:46:00;40.38;;;22.60;;
21274;SDS011;36472;52.170;20.884;2024-01-30T03:48:32;41.10;;;22.70;;
21274;SDS011;36472;52.170;20.884;2024-01-30T03:51:01;34.65;;;21.48;;
21274;SDS011;36472;52.170;20.884;2024-01-30T03:53:30;37.55;;;21.83;;
21274;SDS011;36472;52.170;20.884;2024-01-30T03:55:59;36.42;;;22.05;;
21274;SDS011;36472;52.170;20.884;2024-01-30T03:58:28;37.50;;;22.42;;
21274;SDS011;36472;52.170;20.884;2024-01-30T04:00:57;37.50;;;20.67;;
21274;SDS011;36472;52.170;20.884;2024-01-30T04:03:27;38.92;;;21.98;;
21274;SDS011;36472;52.170;20.884;2024-01-30T04:05:57;39.75;;;21.45;;
21274;SDS011;36472;52.170;20.884;2024-01-30T04:08:26;39.50;;;22.58;;
21274;SDS011;36472;52.170;20.884;2024-01-30T04:10:55;36.17;;;22.75;;
21274;SDS011;36472;52.170;20.884;2024-01-30T04:13:24;37.35;;;21.58;;
21274;SDS011;36472;52.170;20.884;2024-01-30T04:15:53;35.92;;;22.10;;
21274;SDS011;36472;52.170;20.884;2024-01-30T04:18:23;36.05;;;21.63;;
21274;SDS011;36472;52.170;20.884;2024-01-30T04:20:52;40.33;;;22.20;;
21274;SDS011;36472;52.170;20.884;2024-01-30T04:23:22;39.53;;;20.80;;
21274;SDS011;36472;52.170;20.884;2024-01-30T04:25:51;33.13;;;20.15;;
21274;SDS011;36472;52.170;20.884;2024-01-30T04:28:20;40.28;;;21.60;;
21274;SDS011;36472;52.170;20.884;2024-01-30T04:30:49;37.15;;;22.40;;
21274;SDS011;36472;52.170;20.884;2024-01-30T04:33:18;36.25;;;22.10;;
21274;SDS011;36472;52.170;20.884;2024-01-30T04:35:47;37.05;;;21.40;;
21274;SDS011;36472;52.170;20.884;2024-01-30T04:38:16;33.75;;;21.10;;
21274;SDS011;36472;52.170;20.884;2024-01-30T04:40:47;42.47;;;21.73;;
21274;SDS011;36472;52.170;20.884;2024-01-30T04:43:16;37.42;;;21.48;;
21274;SDS011;36472;52.170;20.884;2024-01-30T04:45:46;35.25;;;21.90;;
21274;SDS011;36472;52.170;20.884;2024-01-30T04:48:15;35.08;;;20.48;;
21274;SDS011;36472;52.170;20.884;2024-01-30T04:50:44;35.13;;;21.70;;
21274;SDS011;36472;52.170;20.884;2024-01-30T04:53:13;37.92;;;22.20;;
21274;SDS011;36472;52.170;20.884;2024-01-30T04:55:42;37.80;;;20.70;;
21274;SDS011;36472;52.170;20.884;2024-01-30T04:58:12;32.25;;;21.20;;
21274;SDS011;36472;52.170;20.884;2024-01-30T05:00:41;34.15;;;20.75;;
21274;SDS011;36472;52.170;20.884;2024-01-30T05:03:11;36.42;;;21.38;;
21274;SDS011;36472;52.170;20.884;2024-01-30T05:05:40;38.28;;;22.15;;
21274;SDS011;36472;52.170;20.884;2024-01-30T05:08:09;37.13;;;21.23;;
21274;SDS011;36472;52.170;20.884;2024-01-30T05:10:38;33.72;;;21.33;;
21274;SDS011;36472;52.170;20.884;2024-01-30T05:13:07;36.50;;;22.02;;
21274;SDS011;36472;52.170;20.884;2024-01-30T05:15:37;36.08;;;21.33;;
21274;SDS011;36472;52.170;20.884;2024-01-30T05:18:06;39.97;;;21.42;;
21274;SDS011;36472;52.170;20.884;2024-01-30T05:20:35;34.72;;;21.70;;
21274;SDS011;36472;52.170;20.884;2024-01-30T05:23:04;32.28;;;20.80;;
21274;SDS011;36472;52.170;20.884;2024-01-30T05:25:33;36.58;;;21.98;;
21274;SDS011;36472;52.170;20.884;2024-01-30T05:28:02;38.50;;;21.13;;
21274;SDS011;36472;52.170;20.884;2024-01-30T05:30:32;34.22;;;20.58;;
21274;SDS011;36472;52.170;20.884;2024-01-30T05:33:03;37.63;;;22.20;;
21274;SDS011;36472;52.170;20.884;2024-01-30T05:35:32;35.33;;;20.90;;
21274;SDS011;36472;52.170;20.884;2024-01-30T05:38:01;35.30;;;22.15;;
21274;SDS011;36472;52.170;20.884;2024-01-30T05:40:31;39.25;;;21.73;;
21274;SDS011;36472;52.170;20.884;2024-01-30T05:43:00;41.22;;;21.20;;
21274;SDS011;36472;52.170;20.884;2024-01-30T05:45:29;37.35;;;21.52;;
21274;SDS011;36472;52.170;20.884;2024-01-30T05:47:59;40.80;;;22.48;;
21274;SDS011;36472;52.170;20.884;2024-01-30T05:50:29;40.15;;;21.50;;
21274;SDS011;36472;52.170;20.884;2024-01-30T05:52:58;32.25;;;20.23;;
21274;SDS011;36472;52.170;20.884;2024-01-30T05:55:27;33.38;;;20.35;;
21274;SDS011;36472;52.170;20.884;2024-01-30T05:57:56;36.03;;;21.98;;
21274;SDS011;36472;52.170;20.884;2024-01-30T06:00:25;41.70;;;23.65;;
21274;SDS011;36472;52.170;20.884;2024-01-30T06:02:55;181.30;;;88.32;;
21274;SDS011;36472;52.170;20.884;2024-01-30T06:05:24;61.00;;;32.90;;
21274;SDS011;36472;52.170;20.884;2024-01-30T06:07:54;171.35;;;87.35;;
21274;SDS011;36472;52.170;20.884;2024-01-30T06:10:23;82.40;;;46.00;;
21274;SDS011;36472;52.170;20.884;2024-01-30T06:12:52;46.50;;;27.05;;
21274;SDS011;36472;52.170;20.884;2024-01-30T06:15:21;61.53;;;34.28;;
21274;SDS011;36472;52.170;20.884;2024-01-30T06:17:50;103.88;;;58.03;;
21274;SDS011;36472;52.170;20.884;2024-01-30T06:20:19;47.70;;;27.65;;
21274;SDS011;36472;52.170;20.884;2024-01-30T06:22:48;37.40;;;22.92;;
21274;SDS011;36472;52.170;20.884;2024-01-30T06:25:19;51.97;;;29.27;;
21274;SDS011;36472;52.170;20.884;2024-01-30T06:27:48;54.85;;;31.00;;
21274;SDS011;36472;52.170;20.884;2024-01-30T06:30:17;145.82;;;75.65;;
21274;SDS011;36472;52.170;20.884;2024-01-30T06:32:46;126.30;;;64.07;;
21274;SDS011;36472;52.170;20.884;2024-01-30T06:35:15;86.38;;;45.67;;
21274;SDS011;36472;52.170;20.884;2024-01-30T06:37:45;52.55;;;30.15;;
21274;SDS011;36472;52.170;20.884;2024-01-30T06:40:14;52.03;;;29.05;;
21274;SDS011;36472;52.170;20.884;2024-01-30T06:42:44;54.40;;;31.02;;
21274;SDS011;36472;52.170;20.884;2024-01-30T06:45:13;47.15;;;27.50;;
21274;SDS011;36472;52.170;20.884;2024-01-30T06:47:42;42.22;;;26.17;;
21274;SDS011;36472;52.170;20.884;2024-01-30T06:50:11;43.10;;;23.92;;
21274;SDS011;36472;52.170;20.884;2024-01-30T06:52:41;47.65;;;27.75;;
21274;SDS011;36472;52.170;20.884;2024-01-30T06:55:10;54.95;;;31.08;;
21274;SDS011;36472;52.170;20.884;2024-01-30T06:57:39;39.78;;;25.52;;
21274;SDS011;36472;52.170;20.884;2024-01-30T07:00:11;45.30;;;29.33;;
21274;SDS011;36472;52.170;20.884;2024-01-30T07:02:42;46.70;;;29.85;;
21274;SDS011;36472;52.170;20.884;2024-01-30T07:05:11;45.15;;;27.83;;
21274;SDS011;36472;52.170;20.884;2024-01-30T07:07:41;39.80;;;24.08;;
21274;SDS011;36472;52.170;20.884;2024-01-30T07:10:10;40.58;;;22.92;;
21274;SDS011;36472;52.170;20.884;2024-01-30T07:12:39;42.17;;;23.88;;
21274;SDS011;36472;52.170;20.884;2024-01-30T07:15:08;40.85;;;23.70;;
21274;SDS011;36472;52.170;20.884;2024-01-30T07:17:42;38.08;;;23.10;;
21274;SDS011;36472;52.170;20.884;2024-01-30T07:20:11;39.17;;;22.85;;
21274;SDS011;36472;52.170;20.884;2024-01-30T07:22:44;41.53;;;23.88;;
21274;SDS011;36472;52.170;20.884;2024-01-30T07:25:13;43.15;;;24.42;;
21274;SDS011;36472;52.170;20.884;2024-01-30T07:27:42;38.90;;;24.05;;
21274;SDS011;36472;52.170;20.884;2024-01-30T07:30:13;40.20;;;23.33;;
21274;SDS011;36472;52.170;20.884;2024-01-30T07:32:43;37.13;;;21.15;;
21274;SDS011;36472;52.170;20.884;2024-01-30T07:35:12;36.85;;;23.33;;
21274;SDS011;36472;52.170;20.884;2024-01-30T07:37:42;35.45;;;23.85;;
21274;SDS011;36472;52.170;20.884;2024-01-30T07:40:11;36.60;;;23.45;;
21274;SDS011;36472;52.170;20.884;2024-01-30T07:42:40;42.67;;;23.77;;
21274;SDS011;36472;52.170;20.884;2024-01-30T07:45:09;106.38;;;53.33;;
21274;SDS011;36472;52.170;20.884;2024-01-30T07:47:39;55.10;;;31.77;;
21274;SDS011;36472;52.170;20.884;2024-01-30T07:50:09;41.47;;;24.02;;
21274;SDS011;36472;52.170;20.884;2024-01-30T07:52:38;38.65;;;21.92;;
21274;SDS011;36472;52.170;20.884;2024-01-30T07:55:07;39.13;;;22.85;;
21274;SDS011;36472;52.170;20.884;2024-01-30T07:57:38;34.53;;;20.13;;
21274;SDS011;36472;52.170;20.884;2024-01-30T08:00:07;35.03;;;20.05;;
21274;SDS011;36472;52.170;20.884;2024-01-30T08:02:37;35.78;;;21.48;;
21274;SDS011;36472;52.170;20.884;2024-01-30T08:05:07;33.60;;;19.83;;
21274;SDS011;36472;52.170;20.884;2024-01-30T08:07:38;30.40;;;19.20;;
21274;SDS011;36472;52.170;20.884;2024-01-30T08:10:07;33.65;;;19.92;;
21274;SDS011;36472;52.170;20.884;2024-01-30T08:12:38;27.85;;;18.52;;
21274;SDS011;36472;52.170;20.884;2024-01-30T08:15:07;30.60;;;18.90;;
21274;SDS011;36472;52.170;20.884;2024-01-30T08:17:37;29.45;;;18.35;;
21274;SDS011;36472;52.170;20.884;2024-01-30T08:20:08;30.65;;;19.40;;
21274;SDS011;36472;52.170;20.884;2024-01-30T08:22:39;29.77;;;18.52;;
21274;SDS011;36472;52.170;20.884;2024-01-30T08:25:09;28.70;;;18.05;;
21274;SDS011;36472;52.170;20.884;2024-01-30T08:27:39;26.08;;;15.93;;
21274;SDS011;36472;52.170;20.884;2024-01-30T08:30:08;28.23;;;16.75;;
21274;SDS011;36472;52.170;20.884;2024-01-30T08:32:39;26.40;;;15.48;;
21274;SDS011;36472;52.170;20.884;2024-01-30T08:35:08;26.20;;;15.23;;
21274;SDS011;36472;52.170;20.884;2024-01-30T08:37:41;27.30;;;15.48;;
21274;SDS011;36472;52.170;20.884;2024-01-30T08:40:10;28.63;;;15.77;;
21274;SDS011;36472;52.170;20.884;2024-01-30T08:42:39;26.90;;;15.23;;
21274;SDS011;36472;52.170;20.884;2024-01-30T08:45:09;25.45;;;15.27;;
21274;SDS011;36472;52.170;20.884;2024-01-30T08:47:39;29.17;;;17.50;;
21274;SDS011;36472;52.170;20.884;2024-01-30T08:50:09;34.05;;;18.08;;
21274;SDS011;36472;52.170;20.884;2024-01-30T08:52:38;29.90;;;17.42;;
21274;SDS011;36472;52.170;20.884;2024-01-30T08:55:07;29.80;;;16.75;;
21274;SDS011;36472;52.170;20.884;2024-01-30T08:57:36;27.00;;;14.98;;
21274;SDS011;36472;52.170;20.884;2024-01-30T09:00:06;25.73;;;15.52;;
21274;SDS011;36472;52.170;20.884;2024-01-30T09:02:37;27.45;;;15.50;;
21274;SDS011;36472;52.170;20.884;2024-01-30T09:05:08;25.75;;;15.13;;
21274;SDS011;36472;52.170;20.884;2024-01-30T09:07:37;25.42;;;14.50;;
21274;SDS011;36472;52.170;20.884;2024-01-30T09:10:06;25.25;;;14.23;;
21274;SDS011;36472;52.170;20.884;2024-01-30T09:12:40;22.50;;;14.50;;
21274;SDS011;36472;52.170;20.884;2024-01-30T09:15:09;25.63;;;14.32;;
21274;SDS011;36472;52.170;20.884;2024-01-30T09:17:38;26.40;;;15.40;;
21274;SDS011;36472;52.170;20.884;2024-01-30T09:20:09;26.02;;;15.80;;
21274;SDS011;36472;52.170;20.884;2024-01-30T09:22:39;24.83;;;14.68;;
21274;SDS011;36472;52.170;20.884;2024-01-30T09:25:08;27.25;;;16.50;;
21274;SDS011;36472;52.170;20.884;2024-01-30T09:27:38;30.42;;;17.23;;
21274;SDS011;36472;52.170;20.884;2024-01-30T09:30:07;30.05;;;17.38;;
21274;SDS011;36472;52.170;20.884;2024-01-30T09:32:39;28.63;;;18.70;;
21274;SDS011;36472;52.170;20.884;2024-01-30T09:35:09;32.35;;;18.30;;
21274;SDS011;36472;52.170;20.884;2024-01-30T09:37:39;32.80;;;17.42;;
21274;SDS011;36472;52.170;20.884;2024-01-30T09:40:08;28.02;;;16.33;;
21274;SDS011;36472;52.170;20.884;2024-01-30T09:42:37;25.42;;;14.15;;
21274;SDS011;36472;52.170;20.884;2024-01-30T09:45:08;23.52;;;14.77;;
21274;SDS011;36472;52.170;20.884;2024-01-30T09:47:42;41.03;;;23.63;;
21274;SDS011;36472;52.170;20.884;2024-01-30T09:50:14;35.67;;;20.55;;
21274;SDS011;36472;52.170;20.884;2024-01-30T09:52:45;28.55;;;16.17;;
21274;SDS011;36472;52.170;20.884;2024-01-30T09:55:14;27.90;;;15.60;;
21274;SDS011;36472;52.170;20.884;2024-01-30T09:57:44;25.27;;;13.75;;
21274;SDS011;36472;52.170;20.884;2024-01-30T10:00:13;21.35;;;13.15;;
21274;SDS011;36472;52.170;20.884;2024-01-30T10:02:43;26.88;;;14.00;;
21274;SDS011;36472;52.170;20.884;2024-01-30T10:05:14;22.67;;;13.23;;
21274;SDS011;36472;52.170;20.884;2024-01-30T10:07:52;20.38;;;11.77;;
21274;SDS011;36472;52.170;20.884;2024-01-30T10:10:23;18.58;;;11.70;;
21274;SDS011;36472;52.170;20.884;2024-01-30T10:12:53;18.95;;;11.48;;
21274;SDS011;36472;52.170;20.884;2024-01-30T10:15:22;23.17;;;12.18;;
21274;SDS011;36472;52.170;20.884;2024-01-30T10:17:53;19.55;;;12.20;;
21274;SDS011;36472;52.170;20.884;2024-01-30T10:20:25;18.38;;;12.07;;
21274;SDS011;36472;52.170;20.884;2024-01-30T10:22:55;23.88;;;12.82;;
21274;SDS011;36472;52.170;20.884;2024-01-30T10:25:25;18.98;;;11.32;;
21274;SDS011;36472;52.170;20.884;2024-01-30T10:27:54;17.55;;;12.15;;
21274;SDS011;36472;52.170;20.884;2024-01-30T10:30:24;17.92;;;12.15;;
21274;SDS011;36472;52.170;20.884;2024-01-30T10:32:53;18.58;;;12.38;;
21274;SDS011;36472;52.170;20.884;2024-01-30T10:35:22;17.13;;;11.20;;
21274;SDS011;36472;52.170;20.884;2024-01-30T10:37:53;19.80;;;12.52;;
21274;SDS011;36472;52.170;20.884;2024-01-30T10:40:27;18.75;;;11.85;;
21274;SDS011;36472;52.170;20.884;2024-01-30T10:42:57;16.90;;;11.32;;
21274;SDS011;36472;52.170;20.884;2024-01-30T10:45:31;18.60;;;11.52;;
21274;SDS011;36472;52.170;20.884;2024-01-30T10:48:02;22.08;;;12.43;;
21274;SDS011;36472;52.170;20.884;2024-01-30T10:50:37;18.08;;;11.00;;
21274;SDS011;36472;52.170;20.884;2024-01-30T10:53:21;20.50;;;11.52;;
21274;SDS011;36472;52.170;20.884;2024-01-30T10:55:53;20.50;;;12.60;;
21274;SDS011;36472;52.170;20.884;2024-01-30T10:58:25;19.33;;;11.55;;
21274;SDS011;36472;52.170;20.884;2024-01-30T11:00:55;17.38;;;10.80;;
21274;SDS011;36472;52.170;20.884;2024-01-30T11:03:26;19.10;;;12.20;;
21274;SDS011;36472;52.170;20.884;2024-01-30T11:05:58;17.30;;;10.25;;
21274;SDS011;36472;52.170;20.884;2024-01-30T11:08:31;20.08;;;11.48;;
21274;SDS011;36472;52.170;20.884;2024-01-30T11:11:01;18.17;;;11.05;;
21274;SDS011;36472;52.170;20.884;2024-01-30T11:13:36;17.90;;;10.85;;
21274;SDS011;36472;52.170;20.884;2024-01-30T11:16:06;14.82;;;9.90;;
21274;SDS011;36472;52.170;20.884;2024-01-30T11:18:35;19.20;;;11.05;;
21274;SDS011;36472;52.170;20.884;2024-01-30T11:21:04;18.48;;;11.25;;
21274;SDS011;36472;52.170;20.884;2024-01-30T11:23:35;17.42;;;10.90;;
21274;SDS011;36472;52.170;20.884;2024-01-30T11:26:07;19.33;;;10.80;;
21274;SDS011;36472;52.170;20.884;2024-01-30T11:28:39;15.82;;;10.75;;
21274;SDS011;36472;52.170;20.884;2024-01-30T11:31:08;17.55;;;10.82;;
21274;SDS011;36472;52.170;20.884;2024-01-30T11:33:39;17.85;;;11.18;;
21274;SDS011;36472;52.170;20.884;2024-01-30T11:36:08;17.90;;;10.52;;
21274;SDS011;36472;52.170;20.884;2024-01-30T11:38:42;19.52;;;11.05;;
21274;SDS011;36472;52.170;20.884;2024-01-30T11:41:13;14.65;;;9.95;;
21274;SDS011;36472;52.170;20.884;2024-01-30T11:43:50;18.75;;;11.10;;
21274;SDS011;36472;52.170;20.884;2024-01-30T11:46:20;20.13;;;11.90;;
21274;SDS011;36472;52.170;20.884;2024-01-30T11:48:53;20.63;;;12.38;;
21274;SDS011;36472;52.170;20.884;2024-01-30T11:51:22;17.88;;;11.63;;
21274;SDS011;36472;52.170;20.884;2024-01-30T11:53:52;17.33;;;10.70;;
21274;SDS011;36472;52.170;20.884;2024-01-30T11:56:21;18.27;;;12.00;;
21274;SDS011;36472;52.170;20.884;2024-01-30T11:58:54;22.08;;;12.57;;
21274;SDS011;36472;52.170;20.884;2024-01-30T12:01:22;19.70;;;11.55;;
21274;SDS011;36472;52.170;20.884;2024-01-30T12:03:54;17.73;;;11.30;;
21274;SDS011;36472;52.170;20.884;2024-01-30T12:06:24;19.38;;;12.02;;
21274;SDS011;36472;52.170;20.884;2024-01-30T12:09:01;19.60;;;12.43;;
21274;SDS011;36472;52.170;20.884;2024-01-30T12:11:32;21.05;;;13.18;;
21274;SDS011;36472;52.170;20.884;2024-01-30T12:14:01;18.50;;;12.15;;
21274;SDS011;36472;52.170;20.884;2024-01-30T12:16:30;19.35;;;11.63;;
21274;SDS011;36472;52.170;20.884;2024-01-30T12:18:59;19.08;;;11.50;;
21274;SDS011;36472;52.170;20.884;2024-01-30T12:21:29;20.98;;;12.18;;
21274;SDS011;36472;52.170;20.884;2024-01-30T12:23:59;23.35;;;12.63;;
21274;SDS011;36472;52.170;20.884;2024-01-30T12:26:29;18.48;;;12.30;;
21274;SDS011;36472;52.170;20.884;2024-01-30T12:28:58;18.23;;;11.25;;
21274;SDS011;36472;52.170;20.884;2024-01-30T12:31:28;20.58;;;11.63;;
21274;SDS011;36472;52.170;20.884;2024-01-30T12:34:01;19.88;;;11.57;;
21274;SDS011;36472;52.170;20.884;2024-01-30T12:36:30;19.23;;;11.52;;
21274;SDS011;36472;52.170;20.884;2024-01-30T12:39:01;20.45;;;11.65;;
21274;SDS011;36472;52.170;20.884;2024-01-30T12:41:31;19.40;;;11.70;;
21274;SDS011;36472;52.170;20.884;2024-01-30T12:44:00;16.02;;;11.40;;
21274;SDS011;36472;52.170;20.884;2024-01-30T12:46:30;17.27;;;11.57;;
21274;SDS011;36472;52.170;20.884;2024-01-30T12:48:59;16.48;;;11.27;;
21274;SDS011;36472;52.170;20.884;2024-01-30T12:51:30;19.00;;;12.05;;
21274;SDS011;36472;52.170;20.884;2024-01-30T12:54:07;18.25;;;11.50;;
21274;SDS011;36472;52.170;20.884;2024-01-30T12:56:36;17.23;;;11.15;;
21274;SDS011;36472;52.170;20.884;2024-01-30T12:59:05;17.27;;;11.48;;
21274;SDS011;36472;52.170;20.884;2024-01-30T13:01:34;16.13;;;11.30;;
21274;SDS011;36472;52.170;20.884;2024-01-30T13:04:03;20.77;;;11.77;;
21274;SDS011;36472;52.170;20.884;2024-01-30T13:06:32;18.38;;;11.70;;
21274;SDS011;36472;52.170;20.884;2024-01-30T13:09:02;21.27;;;12.18;;
21274;SDS011;36472;52.170;20.884;2024-01-30T13:11:32;18.38;;;11.07;;
21274;SDS011;36472;52.170;20.884;2024-01-30T13:14:02;21.35;;;11.73;;
21274;SDS011;36472;52.170;20.884;2024-01-30T13:16:30;18.80;;;12.77;;
21274;SDS011;36472;52.170;20.884;2024-01-30T13:19:00;18.75;;;12.23;;
21274;SDS011;36472;52.170;20.884;2024-01-30T13:21:29;18.48;;;12.02;;
21274;SDS011;36472;52.170;20.884;2024-01-30T13:23:58;18.35;;;11.48;;
21274;SDS011;36472;52.170;20.884;2024-01-30T13:26:27;19.40;;;12.07;;
21274;SDS011;36472;52.170;20.884;2024-01-30T13:28:59;17.55;;;11.00;;
21274;SDS011;36472;52.170;20.884;2024-01-30T13:31:28;16.20;;;10.23;;
21274;SDS011;36472;52.170;20.884;2024-01-30T13:33:58;19.23;;;11.63;;
21274;SDS011;36472;52.170;20.884;2024-01-30T13:36:29;18.75;;;11.73;;
21274;SDS011;36472;52.170;20.884;2024-01-30T13:38:58;17.67;;;11.48;;
21274;SDS011;36472;52.170;20.884;2024-01-30T13:41:27;22.30;;;13.02;;
21274;SDS011;36472;52.170;20.884;2024-01-30T13:43:58;23.13;;;13.45;;
21274;SDS011;36472;52.170;20.884;2024-01-30T13:46:30;21.17;;;13.27;;
21274;SDS011;36472;52.170;20.884;2024-01-30T13:49:00;18.00;;;11.82;;
21274;SDS011;36472;52.170;20.884;2024-01-30T13:51:29;18.55;;;11.77;;
21274;SDS011;36472;52.170;20.884;2024-01-30T13:53:58;19.50;;;11.35;;
21274;SDS011;36472;52.170;20.884;2024-01-30T13:56:27;16.67;;;11.13;;
21274;SDS011;36472;52.170;20.884;2024-01-30T13:58:58;19.75;;;11.80;;
21274;SDS011;36472;52.170;20.884;2024-01-30T14:01:28;20.52;;;12.18;;
21274;SDS011;36472;52.170;20.884;2024-01-30T14:03:58;17.25;;;11.02;;
21274;SDS011;36472;52.170;20.884;2024-01-30T14:06:26;17.95;;;11.00;;
21274;SDS011;36472;52.170;20.884;2024-01-30T14:08:56;17.52;;;11.70;;
21274;SDS011;36472;52.170;20.884;2024-01-30T14:11:34;16.92;;;11.27;;
21274;SDS011;36472;52.170;20.884;2024-01-30T14:14:04;18.25;;;10.85;;
21274;SDS011;36472;52.170;20.884;2024-01-30T14:16:33;18.10;;;11.55;;
21274;SDS011;36472;52.170;20.884;2024-01-30T14:19:02;18.13;;;11.18;;
21274;SDS011;36472;52.170;20.884;2024-01-30T14:21:31;19.27;;;11.07;;
21274;SDS011;36472;52.170;20.884;2024-01-30T14:24:00;16.48;;;10.32;;